sensor_id;sensor_type;location;lat;lon;timestamp;temperature;humidity
33023;DHT22;19390;51.460;5.710;2023-06-14T00:00:38;15.20;99.90
33023;DHT22;19390;51.460;5.710;2023-06-14T00:03:08;15.30;99.90
33023;DHT22;19390;51.460;5.710;2023-06-14T00:05:36;15.10;99.90
33023;DHT22;19390;51.460;5.710;2023-06-14T00:08:07;15.00;99.90
33023;DHT22;19390;51.460;5.710;2023-06-14T00:10:34;15.10;99.90
33023;DHT22;19390;51.460;5.710;2023-06-14T00:13:01;15.20;99.90
33023;DHT22;19390;51.460;5.710;2023-06-14T00:15:27;15.30;99.90
33023;DHT22;19390;51.460;5.710;2023-06-14T00:17:53;15.30;99.90
33023;DHT22;19390;51.460;5.710;2023-06-14T00:20:20;15.40;99.90
33023;DHT22;19390;51.460;5.710;2023-06-14T00:22:46;15.50;99.90
33023;DHT22;19390;51.460;5.710;2023-06-14T00:25:11;15.50;99.90
33023;DHT22;19390;51.460;5.710;2023-06-14T00:27:37;15.60;99.90
33023;DHT22;19390;51.460;5.710;2023-06-14T00:30:03;15.40;99.90
33023;DHT22;19390;51.460;5.710;2023-06-14T00:32:29;15.30;99.90
33023;DHT22;19390;51.460;5.710;2023-06-14T00:34:55;15.30;99.90
33023;DHT22;19390;51.460;5.710;2023-06-14T00:37:21;15.20;99.90
33023;DHT22;19390;51.460;5.710;2023-06-14T00:39:47;14.90;99.90
33023;DHT22;19390;51.460;5.710;2023-06-14T00:42:23;14.80;99.90
33023;DHT22;19390;51.460;5.710;2023-06-14T00:44:49;14.80;99.90
33023;DHT22;19390;51.460;5.710;2023-06-14T00:47:15;14.70;99.90
33023;DHT22;19390;51.460;5.710;2023-06-14T00:49:41;14.90;99.90
33023;DHT22;19390;51.460;5.710;2023-06-14T00:52:07;14.70;99.90
33023;DHT22;19390;51.460;5.710;2023-06-14T00:54:32;14.50;99.90
33023;DHT22;19390;51.460;5.710;2023-06-14T00:56:58;14.30;99.90
33023;DHT22;19390;51.460;5.710;2023-06-14T00:59:24;14.40;99.90
33023;DHT22;19390;51.460;5.710;2023-06-14T01:01:50;14.60;99.90
33023;DHT22;19390;51.460;5.710;2023-06-14T01:04:16;14.40;99.90
33023;DHT22;19390;51.460;5.710;2023-06-14T01:07:10;14.70;99.90
33023;DHT22;19390;51.460;5.710;2023-06-14T01:12:54;14.70;99.90
33023;DHT22;19390;51.460;5.710;2023-06-14T01:15:23;14.90;99.90
33023;DHT22;19390;51.460;5.710;2023-06-14T01:17:50;15.00;99.90
33023;DHT22;19390;51.460;5.710;2023-06-14T01:20:17;15.00;99.90
33023;DHT22;19390;51.460;5.710;2023-06-14T01:22:50;15.00;99.90
33023;DHT22;19390;51.460;5.710;2023-06-14T01:25:17;15.10;99.90
33023;DHT22;19390;51.460;5.710;2023-06-14T01:27:49;15.00;99.90
33023;DHT22;19390;51.460;5.710;2023-06-14T01:30:15;14.90;99.90
33023;DHT22;19390;51.460;5.710;2023-06-14T01:32:42;14.80;99.90
33023;DHT22;19390;51.460;5.710;2023-06-14T01:35:08;14.60;99.90
33023;DHT22;19390;51.460;5.710;2023-06-14T01:37:34;14.60;99.90
33023;DHT22;19390;51.460;5.710;2023-06-14T01:40:04;14.50;99.90
33023;DHT22;19390;51.460;5.710;2023-06-14T01:42:33;14.70;99.90
33023;DHT22;19390;51.460;5.710;2023-06-14T01:44:59;14.70;99.90
33023;DHT22;19390;51.460;5.710;2023-06-14T01:47:25;14.60;99.90
33023;DHT22;19390;51.460;5.710;2023-06-14T01:49:52;14.60;99.90
33023;DHT22;19390;51.460;5.710;2023-06-14T01:52:17;14.60;99.90
33023;DHT22;19390;51.460;5.710;2023-06-14T01:54:45;14.80;99.90
33023;DHT22;19390;51.460;5.710;2023-06-14T01:57:11;14.80;99.90
33023;DHT22;19390;51.460;5.710;2023-06-14T01:59:37;14.80;99.90
33023;DHT22;19390;51.460;5.710;2023-06-14T02:02:03;14.90;99.90
33023;DHT22;19390;51.460;5.710;2023-06-14T02:04:29;15.00;99.90
33023;DHT22;19390;51.460;5.710;2023-06-14T02:06:55;14.90;99.90
33023;DHT22;19390;51.460;5.710;2023-06-14T02:09:20;14.90;99.90
33023;DHT22;19390;51.460;5.710;2023-06-14T02:11:46;15.00;99.90
33023;DHT22;19390;51.460;5.710;2023-06-14T02:14:12;15.00;99.90
33023;DHT22;19390;51.460;5.710;2023-06-14T02:16:38;15.00;99.90
33023;DHT22;19390;51.460;5.710;2023-06-14T02:19:04;15.00;99.90
33023;DHT22;19390;51.460;5.710;2023-06-14T02:21:30;15.00;99.90
33023;DHT22;19390;51.460;5.710;2023-06-14T02:23:56;15.00;99.90
33023;DHT22;19390;51.460;5.710;2023-06-14T02:26:21;15.00;99.90
33023;DHT22;19390;51.460;5.710;2023-06-14T02:28:50;15.00;99.90
33023;DHT22;19390;51.460;5.710;2023-06-14T02:31:16;14.90;99.90
33023;DHT22;19390;51.460;5.710;2023-06-14T02:33:42;15.00;99.90
33023;DHT22;19390;51.460;5.710;2023-06-14T02:36:07;15.10;99.90
33023;DHT22;19390;51.460;5.710;2023-06-14T02:38:33;14.90;99.90
33023;DHT22;19390;51.460;5.710;2023-06-14T02:40:58;14.90;99.90
33023;DHT22;19390;51.460;5.710;2023-06-14T02:43:25;15.00;99.90
33023;DHT22;19390;51.460;5.710;2023-06-14T02:45:51;14.90;99.90
33023;DHT22;19390;51.460;5.710;2023-06-14T02:48:17;14.80;99.90
33023;DHT22;19390;51.460;5.710;2023-06-14T02:50:43;14.80;99.90
33023;DHT22;19390;51.460;5.710;2023-06-14T02:53:08;14.70;99.90
33023;DHT22;19390;51.460;5.710;2023-06-14T02:55:34;14.70;99.90
33023;DHT22;19390;51.460;5.710;2023-06-14T02:58:05;14.70;99.90
33023;DHT22;19390;51.460;5.710;2023-06-14T03:00:31;14.70;99.90
33023;DHT22;19390;51.460;5.710;2023-06-14T03:02:57;14.80;99.90
33023;DHT22;19390;51.460;5.710;2023-06-14T03:05:22;14.60;99.90
33023;DHT22;19390;51.460;5.710;2023-06-14T03:07:49;14.60;99.90
33023;DHT22;19390;51.460;5.710;2023-06-14T03:10:15;14.60;99.90
33023;DHT22;19390;51.460;5.710;2023-06-14T03:12:41;14.50;99.90
33023;DHT22;19390;51.460;5.710;2023-06-14T03:15:07;14.50;99.90
33023;DHT22;19390;51.460;5.710;2023-06-14T03:17:34;14.30;99.90
33023;DHT22;19390;51.460;5.710;2023-06-14T03:20:01;14.30;99.90
33023;DHT22;19390;51.460;5.710;2023-06-14T03:22:26;14.40;99.90
33023;DHT22;19390;51.460;5.710;2023-06-14T03:24:53;14.40;99.90
33023;DHT22;19390;51.460;5.710;2023-06-14T03:27:20;14.40;99.90
33023;DHT22;19390;51.460;5.710;2023-06-14T03:29:46;14.30;99.90
33023;DHT22;19390;51.460;5.710;2023-06-14T03:32:11;14.40;99.90
33023;DHT22;19390;51.460;5.710;2023-06-14T03:34:37;14.50;99.90
33023;DHT22;19390;51.460;5.710;2023-06-14T03:37:04;14.40;99.90
33023;DHT22;19390;51.460;5.710;2023-06-14T03:39:30;14.40;99.90
33023;DHT22;19390;51.460;5.710;2023-06-14T03:41:55;14.30;99.90
33023;DHT22;19390;51.460;5.710;2023-06-14T03:44:21;14.30;99.90
33023;DHT22;19390;51.460;5.710;2023-06-14T03:46:47;14.30;99.90
33023;DHT22;19390;51.460;5.710;2023-06-14T03:49:12;14.20;99.90
33023;DHT22;19390;51.460;5.710;2023-06-14T03:51:38;14.10;99.90
33023;DHT22;19390;51.460;5.710;2023-06-14T03:54:05;14.20;99.90
33023;DHT22;19390;51.460;5.710;2023-06-14T03:56:31;14.20;99.90
33023;DHT22;19390;51.460;5.710;2023-06-14T03:58:56;14.20;99.90
33023;DHT22;19390;51.460;5.710;2023-06-14T04:01:22;14.20;99.90
33023;DHT22;19390;51.460;5.710;2023-06-14T04:03:55;14.30;99.90
33023;DHT22;19390;51.460;5.710;2023-06-14T04:06:22;14.30;99.90
33023;DHT22;19390;51.460;5.710;2023-06-14T04:08:50;14.40;99.90
33023;DHT22;19390;51.460;5.710;2023-06-14T04:11:16;14.50;99.90
33023;DHT22;19390;51.460;5.710;2023-06-14T04:13:41;14.50;99.90
33023;DHT22;19390;51.460;5.710;2023-06-14T04:16:07;14.50;99.90
33023;DHT22;19390;51.460;5.710;2023-06-14T04:18:33;14.50;99.90
33023;DHT22;19390;51.460;5.710;2023-06-14T04:20:58;14.60;99.90
33023;DHT22;19390;51.460;5.710;2023-06-14T04:23:24;14.60;99.90
33023;DHT22;19390;51.460;5.710;2023-06-14T04:25:50;14.70;99.90
33023;DHT22;19390;51.460;5.710;2023-06-14T04:28:16;14.70;99.90
33023;DHT22;19390;51.460;5.710;2023-06-14T04:30:42;14.70;99.90
33023;DHT22;19390;51.460;5.710;2023-06-14T04:33:08;14.80;99.90
33023;DHT22;19390;51.460;5.710;2023-06-14T04:35:35;14.90;99.90
33023;DHT22;19390;51.460;5.710;2023-06-14T04:38:01;14.90;99.90
33023;DHT22;19390;51.460;5.710;2023-06-14T04:40:30;15.00;99.90
33023;DHT22;19390;51.460;5.710;2023-06-14T04:42:55;15.00;99.90
33023;DHT22;19390;51.460;5.710;2023-06-14T04:45:21;15.10;99.90
33023;DHT22;19390;51.460;5.710;2023-06-14T04:47:47;15.20;99.90
33023;DHT22;19390;51.460;5.710;2023-06-14T04:50:13;15.40;99.90
33023;DHT22;19390;51.460;5.710;2023-06-14T04:52:40;15.50;99.90
33023;DHT22;19390;51.460;5.710;2023-06-14T04:55:06;16.10;99.90
33023;DHT22;19390;51.460;5.710;2023-06-14T04:57:32;16.50;99.90
33023;DHT22;19390;51.460;5.710;2023-06-14T04:59:57;16.60;99.90
33023;DHT22;19390;51.460;5.710;2023-06-14T05:02:24;16.30;99.90
33023;DHT22;19390;51.460;5.710;2023-06-14T05:04:50;16.20;99.90
33023;DHT22;19390;51.460;5.710;2023-06-14T05:07:16;16.40;99.90
33023;DHT22;19390;51.460;5.710;2023-06-14T05:09:42;17.70;99.90
33023;DHT22;19390;51.460;5.710;2023-06-14T05:12:08;19.50;99.90
33023;DHT22;19390;51.460;5.710;2023-06-14T05:14:34;20.40;99.90
33023;DHT22;19390;51.460;5.710;2023-06-14T05:17:00;21.40;99.90
33023;DHT22;19390;51.460;5.710;2023-06-14T05:19:27;22.00;99.90
33023;DHT22;19390;51.460;5.710;2023-06-14T05:21:52;22.50;99.90
33023;DHT22;19390;51.460;5.710;2023-06-14T05:24:18;22.10;99.90
33023;DHT22;19390;51.460;5.710;2023-06-14T05:26:45;22.40;99.90
33023;DHT22;19390;51.460;5.710;2023-06-14T05:29:10;22.40;99.90
33023;DHT22;19390;51.460;5.710;2023-06-14T05:31:36;22.40;99.90
33023;DHT22;19390;51.460;5.710;2023-06-14T05:34:02;23.50;99.90
33023;DHT22;19390;51.460;5.710;2023-06-14T05:36:27;22.90;99.90
33023;DHT22;19390;51.460;5.710;2023-06-14T05:38:53;23.40;99.90
33023;DHT22;19390;51.460;5.710;2023-06-14T05:41:24;23.60;99.90
33023;DHT22;19390;51.460;5.710;2023-06-14T05:43:51;24.10;99.90
33023;DHT22;19390;51.460;5.710;2023-06-14T05:46:17;23.90;99.90
33023;DHT22;19390;51.460;5.710;2023-06-14T05:48:47;24.20;99.90
33023;DHT22;19390;51.460;5.710;2023-06-14T05:51:13;22.60;99.90
33023;DHT22;19390;51.460;5.710;2023-06-14T05:53:39;23.90;99.90
33023;DHT22;19390;51.460;5.710;2023-06-14T05:56:04;25.40;99.90
33023;DHT22;19390;51.460;5.710;2023-06-14T05:58:30;25.60;99.90
33023;DHT22;19390;51.460;5.710;2023-06-14T06:00:55;25.50;99.90
33023;DHT22;19390;51.460;5.710;2023-06-14T06:03:21;26.00;99.90
33023;DHT22;19390;51.460;5.710;2023-06-14T06:05:48;26.00;99.90
33023;DHT22;19390;51.460;5.710;2023-06-14T06:08:13;24.90;99.90
33023;DHT22;19390;51.460;5.710;2023-06-14T06:10:39;24.90;99.90
33023;DHT22;19390;51.460;5.710;2023-06-14T06:13:05;26.70;99.90
33023;DHT22;19390;51.460;5.710;2023-06-14T06:15:30;25.30;99.90
33023;DHT22;19390;51.460;5.710;2023-06-14T06:17:56;25.70;99.90
33023;DHT22;19390;51.460;5.710;2023-06-14T06:20:25;25.40;99.90
33023;DHT22;19390;51.460;5.710;2023-06-14T06:22:55;26.20;99.90
33023;DHT22;19390;51.460;5.710;2023-06-14T06:25:20;26.00;99.90
33023;DHT22;19390;51.460;5.710;2023-06-14T06:27:47;25.60;99.90
33023;DHT22;19390;51.460;5.710;2023-06-14T06:30:13;25.80;99.90
33023;DHT22;19390;51.460;5.710;2023-06-14T06:32:39;25.20;99.90
33023;DHT22;19390;51.460;5.710;2023-06-14T06:35:05;25.80;99.90
33023;DHT22;19390;51.460;5.710;2023-06-14T06:37:32;25.30;99.90
33023;DHT22;19390;51.460;5.710;2023-06-14T06:39:58;25.80;99.90
33023;DHT22;19390;51.460;5.710;2023-06-14T06:42:23;26.30;99.90
33023;DHT22;19390;51.460;5.710;2023-06-14T06:44:49;26.00;99.90
33023;DHT22;19390;51.460;5.710;2023-06-14T06:47:15;26.00;99.90
33023;DHT22;19390;51.460;5.710;2023-06-14T06:49:40;25.60;99.90
33023;DHT22;19390;51.460;5.710;2023-06-14T06:52:07;26.80;99.90
33023;DHT22;19390;51.460;5.710;2023-06-14T06:54:33;26.60;99.90
33023;DHT22;19390;51.460;5.710;2023-06-14T06:56:59;27.90;99.90
33023;DHT22;19390;51.460;5.710;2023-06-14T06:59:24;27.80;99.90
33023;DHT22;19390;51.460;5.710;2023-06-14T07:01:50;27.70;99.90
33023;DHT22;19390;51.460;5.710;2023-06-14T07:04:16;26.90;99.90
33023;DHT22;19390;51.460;5.710;2023-06-14T07:06:42;27.30;99.90
33023;DHT22;19390;51.460;5.710;2023-06-14T07:09:08;28.10;99.90
33023;DHT22;19390;51.460;5.710;2023-06-14T07:11:40;26.30;99.90
33023;DHT22;19390;51.460;5.710;2023-06-14T07:14:06;26.60;99.90
33023;DHT22;19390;51.460;5.710;2023-06-14T07:16:32;27.10;99.90
33023;DHT22;19390;51.460;5.710;2023-06-14T07:18:58;26.80;99.90
33023;DHT22;19390;51.460;5.710;2023-06-14T07:21:23;27.30;99.90
33023;DHT22;19390;51.460;5.710;2023-06-14T07:23:51;27.30;99.90
33023;DHT22;19390;51.460;5.710;2023-06-14T07:26:16;27.20;99.90
33023;DHT22;19390;51.460;5.710;2023-06-14T07:28:42;25.90;99.90
33023;DHT22;19390;51.460;5.710;2023-06-14T07:31:10;27.90;99.90
33023;DHT22;19390;51.460;5.710;2023-06-14T07:33:36;28.20;99.90
33023;DHT22;19390;51.460;5.710;2023-06-14T07:36:02;29.60;99.90
33023;DHT22;19390;51.460;5.710;2023-06-14T07:38:28;30.20;99.90
33023;DHT22;19390;51.460;5.710;2023-06-14T07:40:53;29.70;99.90
33023;DHT22;19390;51.460;5.710;2023-06-14T07:43:19;26.90;99.90
33023;DHT22;19390;51.460;5.710;2023-06-14T07:45:45;29.50;99.90
33023;DHT22;19390;51.460;5.710;2023-06-14T07:48:11;28.30;99.90
33023;DHT22;19390;51.460;5.710;2023-06-14T07:50:37;28.60;99.90
33023;DHT22;19390;51.460;5.710;2023-06-14T07:53:02;28.80;99.90
33023;DHT22;19390;51.460;5.710;2023-06-14T07:55:28;27.70;99.90
33023;DHT22;19390;51.460;5.710;2023-06-14T07:57:54;27.20;99.90
33023;DHT22;19390;51.460;5.710;2023-06-14T08:00:20;28.10;99.90
33023;DHT22;19390;51.460;5.710;2023-06-14T08:02:46;28.30;99.90
33023;DHT22;19390;51.460;5.710;2023-06-14T08:05:11;29.10;99.90
33023;DHT22;19390;51.460;5.710;2023-06-14T08:07:38;27.40;99.90
33023;DHT22;19390;51.460;5.710;2023-06-14T08:10:05;28.90;99.90
33023;DHT22;19390;51.460;5.710;2023-06-14T08:12:32;29.70;99.90
33023;DHT22;19390;51.460;5.710;2023-06-14T08:14:57;28.40;99.90
33023;DHT22;19390;51.460;5.710;2023-06-14T08:17:23;29.40;99.90
33023;DHT22;19390;51.460;5.710;2023-06-14T08:19:49;29.50;99.90
33023;DHT22;19390;51.460;5.710;2023-06-14T08:22:15;28.50;99.90
33023;DHT22;19390;51.460;5.710;2023-06-14T08:24:40;29.80;99.90
33023;DHT22;19390;51.460;5.710;2023-06-14T08:27:06;31.80;99.90
33023;DHT22;19390;51.460;5.710;2023-06-14T08:29:32;33.10;99.90
33023;DHT22;19390;51.460;5.710;2023-06-14T08:31:58;30.60;99.90
33023;DHT22;19390;51.460;5.710;2023-06-14T08:34:23;31.40;99.90
33023;DHT22;19390;51.460;5.710;2023-06-14T08:36:50;27.60;99.90
33023;DHT22;19390;51.460;5.710;2023-06-14T08:39:16;30.60;99.90
33023;DHT22;19390;51.460;5.710;2023-06-14T08:41:44;30.90;99.90
33023;DHT22;19390;51.460;5.710;2023-06-14T08:44:11;29.60;99.90
33023;DHT22;19390;51.460;5.710;2023-06-14T08:46:37;30.80;99.90
33023;DHT22;19390;51.460;5.710;2023-06-14T08:49:04;31.10;99.90
33023;DHT22;19390;51.460;5.710;2023-06-14T08:51:32;33.40;99.90
33023;DHT22;19390;51.460;5.710;2023-06-14T08:54:02;35.50;99.90
33023;DHT22;19390;51.460;5.710;2023-06-14T08:56:31;35.50;99.90
33023;DHT22;19390;51.460;5.710;2023-06-14T08:58:58;34.50;99.90
33023;DHT22;19390;51.460;5.710;2023-06-14T09:01:26;34.00;99.90
33023;DHT22;19390;51.460;5.710;2023-06-14T09:03:52;31.90;99.90
33023;DHT22;19390;51.460;5.710;2023-06-14T09:06:20;30.30;99.90
33023;DHT22;19390;51.460;5.710;2023-06-14T09:08:49;31.90;99.90
33023;DHT22;19390;51.460;5.710;2023-06-14T09:11:16;33.40;99.90
33023;DHT22;19390;51.460;5.710;2023-06-14T09:13:44;31.20;99.90
33023;DHT22;19390;51.460;5.710;2023-06-14T09:16:09;31.30;99.90
33023;DHT22;19390;51.460;5.710;2023-06-14T09:18:43;32.60;99.90
33023;DHT22;19390;51.460;5.710;2023-06-14T09:21:10;33.20;99.90
33023;DHT22;19390;51.460;5.710;2023-06-14T09:23:39;31.60;99.90
33023;DHT22;19390;51.460;5.710;2023-06-14T09:26:16;30.70;99.90
33023;DHT22;19390;51.460;5.710;2023-06-14T09:28:47;33.90;99.90
33023;DHT22;19390;51.460;5.710;2023-06-14T09:31:14;31.30;99.90
33023;DHT22;19390;51.460;5.710;2023-06-14T09:33:48;33.70;99.90
33023;DHT22;19390;51.460;5.710;2023-06-14T09:36:20;29.70;99.90
33023;DHT22;19390;51.460;5.710;2023-06-14T09:39:00;33.20;99.90
33023;DHT22;19390;51.460;5.710;2023-06-14T09:41:36;32.90;99.90
33023;DHT22;19390;51.460;5.710;2023-06-14T09:44:03;32.80;99.90
33023;DHT22;19390;51.460;5.710;2023-06-14T09:46:29;34.50;99.90
33023;DHT22;19390;51.460;5.710;2023-06-14T09:48:59;30.70;99.90
33023;DHT22;19390;51.460;5.710;2023-06-14T09:51:25;32.70;99.90
33023;DHT22;19390;51.460;5.710;2023-06-14T09:53:52;33.60;99.90
33023;DHT22;19390;51.460;5.710;2023-06-14T09:56:25;32.90;99.90
33023;DHT22;19390;51.460;5.710;2023-06-14T09:58:55;30.70;99.90
33023;DHT22;19390;51.460;5.710;2023-06-14T10:01:22;31.40;99.90
33023;DHT22;19390;51.460;5.710;2023-06-14T10:03:50;28.50;99.90
33023;DHT22;19390;51.460;5.710;2023-06-14T10:06:20;32.50;99.90
33023;DHT22;19390;51.460;5.710;2023-06-14T10:08:52;31.60;99.90
33023;DHT22;19390;51.460;5.710;2023-06-14T10:11:18;34.10;99.90
33023;DHT22;19390;51.460;5.710;2023-06-14T10:13:45;32.90;99.90
33023;DHT22;19390;51.460;5.710;2023-06-14T10:18:54;33.00;99.90
33023;DHT22;19390;51.460;5.710;2023-06-14T10:24:20;36.60;99.90
33023;DHT22;19390;51.460;5.710;2023-06-14T10:26:54;33.00;99.90
33023;DHT22;19390;51.460;5.710;2023-06-14T10:29:20;33.50;99.90
33023;DHT22;19390;51.460;5.710;2023-06-14T10:31:50;32.10;99.90
33023;DHT22;19390;51.460;5.710;2023-06-14T10:34:29;35.50;99.90
33023;DHT22;19390;51.460;5.710;2023-06-14T10:39:29;31.10;99.90
33023;DHT22;19390;51.460;5.710;2023-06-14T10:41:56;30.90;99.90
33023;DHT22;19390;51.460;5.710;2023-06-14T10:46:49;33.10;99.90
33023;DHT22;19390;51.460;5.710;2023-06-14T10:52:12;32.20;99.90
33023;DHT22;19390;51.460;5.710;2023-06-14T10:55:07;32.50;99.90
33023;DHT22;19390;51.460;5.710;2023-06-14T10:57:39;33.10;99.90
33023;DHT22;19390;51.460;5.710;2023-06-14T11:00:06;31.90;99.90
33023;DHT22;19390;51.460;5.710;2023-06-14T11:05:29;34.40;99.90
33023;DHT22;19390;51.460;5.710;2023-06-14T11:08:17;32.80;99.90
33023;DHT22;19390;51.460;5.710;2023-06-14T11:10:48;33.00;99.90
33023;DHT22;19390;51.460;5.710;2023-06-14T11:13:16;34.80;99.90
33023;DHT22;19390;51.460;5.710;2023-06-14T11:15:47;32.10;99.90
33023;DHT22;19390;51.460;5.710;2023-06-14T11:18:13;34.00;99.90
33023;DHT22;19390;51.460;5.710;2023-06-14T11:20:39;35.60;99.90
33023;DHT22;19390;51.460;5.710;2023-06-14T11:23:05;34.60;99.90
33023;DHT22;19390;51.460;5.710;2023-06-14T11:25:31;34.40;99.90
33023;DHT22;19390;51.460;5.710;2023-06-14T11:27:57;33.90;99.90
33023;DHT22;19390;51.460;5.710;2023-06-14T11:30:23;34.10;99.90
33023;DHT22;19390;51.460;5.710;2023-06-14T11:32:50;36.00;99.90
33023;DHT22;19390;51.460;5.710;2023-06-14T11:35:17;34.20;99.90
33023;DHT22;19390;51.460;5.710;2023-06-14T11:37:43;33.40;99.90
33023;DHT22;19390;51.460;5.710;2023-06-14T11:40:13;34.00;99.90
33023;DHT22;19390;51.460;5.710;2023-06-14T11:42:41;29.80;99.90
33023;DHT22;19390;51.460;5.710;2023-06-14T11:45:11;31.90;99.90
33023;DHT22;19390;51.460;5.710;2023-06-14T11:47:38;33.70;99.90
33023;DHT22;19390;51.460;5.710;2023-06-14T11:50:06;33.60;99.90
33023;DHT22;19390;51.460;5.710;2023-06-14T11:52:32;34.20;99.90
33023;DHT22;19390;51.460;5.710;2023-06-14T11:54:58;33.50;99.90
33023;DHT22;19390;51.460;5.710;2023-06-14T11:57:24;32.40;99.90
33023;DHT22;19390;51.460;5.710;2023-06-14T11:59:51;33.50;99.90
33023;DHT22;19390;51.460;5.710;2023-06-14T12:02:17;34.10;99.90
33023;DHT22;19390;51.460;5.710;2023-06-14T12:04:43;33.70;99.90
33023;DHT22;19390;51.460;5.710;2023-06-14T12:07:13;33.80;99.90
33023;DHT22;19390;51.460;5.710;2023-06-14T12:12:26;34.10;99.90
33023;DHT22;19390;51.460;5.710;2023-06-14T12:14:53;32.70;99.90
33023;DHT22;19390;51.460;5.710;2023-06-14T12:17:19;34.50;99.90
33023;DHT22;19390;51.460;5.710;2023-06-14T12:19:46;30.90;99.90
33023;DHT22;19390;51.460;5.710;2023-06-14T12:22:12;32.40;99.90
33023;DHT22;19390;51.460;5.710;2023-06-14T12:24:38;31.60;99.90
33023;DHT22;19390;51.460;5.710;2023-06-14T12:27:05;28.60;99.90
33023;DHT22;19390;51.460;5.710;2023-06-14T12:29:31;30.50;99.90
33023;DHT22;19390;51.460;5.710;2023-06-14T12:31:57;33.10;99.90
33023;DHT22;19390;51.460;5.710;2023-06-14T12:34:29;32.20;99.90
33023;DHT22;19390;51.460;5.710;2023-06-14T12:36:56;32.50;99.90
33023;DHT22;19390;51.460;5.710;2023-06-14T12:39:23;32.60;99.90
33023;DHT22;19390;51.460;5.710;2023-06-14T12:41:50;30.80;99.90
33023;DHT22;19390;51.460;5.710;2023-06-14T12:44:15;32.40;99.90
33023;DHT22;19390;51.460;5.710;2023-06-14T12:46:42;33.20;99.90
33023;DHT22;19390;51.460;5.710;2023-06-14T12:49:11;32.10;99.90
33023;DHT22;19390;51.460;5.710;2023-06-14T12:51:38;31.70;99.90
33023;DHT22;19390;51.460;5.710;2023-06-14T12:54:05;30.40;99.90
33023;DHT22;19390;51.460;5.710;2023-06-14T12:56:31;31.10;99.90
33023;DHT22;19390;51.460;5.710;2023-06-14T12:58:56;31.30;99.90
33023;DHT22;19390;51.460;5.710;2023-06-14T13:01:22;30.00;99.90
33023;DHT22;19390;51.460;5.710;2023-06-14T13:03:48;28.50;99.90
33023;DHT22;19390;51.460;5.710;2023-06-14T13:06:15;30.40;99.90
33023;DHT22;19390;51.460;5.710;2023-06-14T13:08:40;32.90;99.90
33023;DHT22;19390;51.460;5.710;2023-06-14T13:11:06;32.00;99.90
33023;DHT22;19390;51.460;5.710;2023-06-14T13:13:31;32.50;99.90
33023;DHT22;19390;51.460;5.710;2023-06-14T13:15:57;32.10;99.90
33023;DHT22;19390;51.460;5.710;2023-06-14T13:18:22;32.80;99.90
33023;DHT22;19390;51.460;5.710;2023-06-14T13:20:48;32.50;99.90
33023;DHT22;19390;51.460;5.710;2023-06-14T13:23:16;31.40;99.90
33023;DHT22;19390;51.460;5.710;2023-06-14T13:25:42;30.00;99.90
33023;DHT22;19390;51.460;5.710;2023-06-14T13:28:08;29.10;99.90
33023;DHT22;19390;51.460;5.710;2023-06-14T13:30:34;28.50;99.90
33023;DHT22;19390;51.460;5.710;2023-06-14T13:33:00;28.90;99.90
33023;DHT22;19390;51.460;5.710;2023-06-14T13:35:26;28.70;99.90
33023;DHT22;19390;51.460;5.710;2023-06-14T13:37:52;28.70;99.90
33023;DHT22;19390;51.460;5.710;2023-06-14T13:40:18;28.50;99.90
33023;DHT22;19390;51.460;5.710;2023-06-14T13:42:44;28.10;99.90
33023;DHT22;19390;51.460;5.710;2023-06-14T13:45:11;28.20;99.90
33023;DHT22;19390;51.460;5.710;2023-06-14T13:47:37;29.20;99.90
33023;DHT22;19390;51.460;5.710;2023-06-14T13:50:04;29.20;99.90
33023;DHT22;19390;51.460;5.710;2023-06-14T13:52:29;27.60;99.90
33023;DHT22;19390;51.460;5.710;2023-06-14T13:54:55;27.90;99.90
33023;DHT22;19390;51.460;5.710;2023-06-14T13:57:20;29.80;99.90
33023;DHT22;19390;51.460;5.710;2023-06-14T13:59:47;30.40;99.90
33023;DHT22;19390;51.460;5.710;2023-06-14T14:02:12;29.40;99.90
33023;DHT22;19390;51.460;5.710;2023-06-14T14:04:39;27.20;99.90
33023;DHT22;19390;51.460;5.710;2023-06-14T14:07:05;28.80;99.90
33023;DHT22;19390;51.460;5.710;2023-06-14T14:09:32;29.50;99.90
33023;DHT22;19390;51.460;5.710;2023-06-14T14:12:01;28.40;99.90
33023;DHT22;19390;51.460;5.710;2023-06-14T14:14:28;28.80;99.90
33023;DHT22;19390;51.460;5.710;2023-06-14T14:16:53;27.50;99.90
33023;DHT22;19390;51.460;5.710;2023-06-14T14:19:20;27.30;99.90
33023;DHT22;19390;51.460;5.710;2023-06-14T14:21:47;27.30;99.90
33023;DHT22;19390;51.460;5.710;2023-06-14T14:24:13;28.80;99.90
33023;DHT22;19390;51.460;5.710;2023-06-14T14:26:39;28.10;99.90
33023;DHT22;19390;51.460;5.710;2023-06-14T14:29:05;28.40;99.90
33023;DHT22;19390;51.460;5.710;2023-06-14T14:31:30;28.10;99.90
33023;DHT22;19390;51.460;5.710;2023-06-14T14:33:56;29.10;99.90
33023;DHT22;19390;51.460;5.710;2023-06-14T14:36:22;28.80;99.90
33023;DHT22;19390;51.460;5.710;2023-06-14T14:38:47;29.10;99.90
33023;DHT22;19390;51.460;5.710;2023-06-14T14:41:13;27.90;99.90
33023;DHT22;19390;51.460;5.710;2023-06-14T14:43:39;28.70;99.90
33023;DHT22;19390;51.460;5.710;2023-06-14T14:46:05;27.70;99.90
33023;DHT22;19390;51.460;5.710;2023-06-14T14:48:30;27.20;99.90
33023;DHT22;19390;51.460;5.710;2023-06-14T14:50:56;28.20;99.90
33023;DHT22;19390;51.460;5.710;2023-06-14T14:53:22;27.70;99.90
33023;DHT22;19390;51.460;5.710;2023-06-14T14:55:47;28.30;99.90
33023;DHT22;19390;51.460;5.710;2023-06-14T14:58:13;28.10;99.90
33023;DHT22;19390;51.460;5.710;2023-06-14T15:00:42;27.40;99.90
33023;DHT22;19390;51.460;5.710;2023-06-14T15:03:08;27.70;99.90
33023;DHT22;19390;51.460;5.710;2023-06-14T15:05:33;26.70;99.90
33023;DHT22;19390;51.460;5.710;2023-06-14T15:07:59;26.80;99.90
33023;DHT22;19390;51.460;5.710;2023-06-14T15:10:24;27.50;99.90
33023;DHT22;19390;51.460;5.710;2023-06-14T15:12:50;27.70;99.90
33023;DHT22;19390;51.460;5.710;2023-06-14T15:15:15;26.40;99.90
33023;DHT22;19390;51.460;5.710;2023-06-14T15:17:41;26.60;99.90
33023;DHT22;19390;51.460;5.710;2023-06-14T15:20:07;26.60;99.90
33023;DHT22;19390;51.460;5.710;2023-06-14T15:22:32;26.50;99.90
33023;DHT22;19390;51.460;5.710;2023-06-14T15:24:58;25.70;99.90
33023;DHT22;19390;51.460;5.710;2023-06-14T15:27:24;27.30;99.90
33023;DHT22;19390;51.460;5.710;2023-06-14T15:29:50;26.80;99.90
33023;DHT22;19390;51.460;5.710;2023-06-14T15:32:15;25.80;99.90
33023;DHT22;19390;51.460;5.710;2023-06-14T15:34:41;26.70;99.90
33023;DHT22;19390;51.460;5.710;2023-06-14T15:37:07;27.00;99.90
33023;DHT22;19390;51.460;5.710;2023-06-14T15:39:33;25.50;99.90
33023;DHT22;19390;51.460;5.710;2023-06-14T15:41:59;25.40;99.90
33023;DHT22;19390;51.460;5.710;2023-06-14T15:44:25;25.90;99.90
33023;DHT22;19390;51.460;5.710;2023-06-14T15:46:51;26.20;99.90
33023;DHT22;19390;51.460;5.710;2023-06-14T15:49:16;26.30;99.90